Time;durP1;ratioP1;P1;durP2;ratioP2;P2;SDS_P1;SDS_P2;PMS_P1;PMS_P2;Temp;Humidity;BMP_temperature;BMP_pressure;BME280_temperature;BME280_humidity;BME280_pressure;Samples;Min_cycle;Max_cycle;Signal;HPM_P1;HPM_P2
2022/12/25 00:00:09;;;;;;;;;;;;;;;;;;1884635;28;7153;-63
2022/12/25 00:01:18;;;;;;;;;;;;;;;;;;1887984;28;7013;-64
2022/12/25 00:02:15;;;;;;;;;;;;;;;;;;1882710;28;7006;-63
2022/12/25 00:03:13;;;;;;;;;;;;;;;;;;1882198;28;7231;-62
2022/12/25 00:04:10;;;;;;;;;;;;;;;;;;1883593;28;7109;-64
2022/12/25 00:05:08;;;;;;;;;;;;;;;;;;1884017;28;7047;-64
2022/12/25 00:06:06;;;;;;;;;;;;;;;;;;1884043;28;8255;-65
2022/12/25 00:07:03;;;;;;;;;;;;;;;;;;1882484;28;7169;-64
2022/12/25 00:08:01;;;;;;;;;;;;;;;;;;1883545;28;8031;-62
2022/12/25 00:08:58;;;;;;;;;;;;;;;;;;1882600;28;7042;-64
2022/12/25 00:09:55;;;;;;;;;;;;;;;;;;1887931;28;7037;-63
2022/12/25 00:11:00;;;;;;;;;;;;;;;;;;1885398;28;7092;-62
2022/12/25 00:11:57;;;;;;;;;;;;;;;;;;1885787;28;7010;-64
2022/12/25 00:12:54;;;;;;;;;;;;;;;;;;1889462;28;8269;-63
2022/12/25 00:13:52;;;;;;;;;;;;;;;;;;1888829;28;8024;-64
2022/12/25 00:14:49;;;;;;;;;;;;;;;;;;1883697;28;8004;-63
2022/12/25 00:15:47;;;;;;;;;;;;;;;;;;1886610;28;7141;-64
2022/12/25 00:16:44;;;;;;;;;;;;;;;;;;1885191;28;7150;-63
2022/12/25 00:17:42;;;;;;;;;;;;;;;;;;1889889;28;7006;-63
2022/12/25 00:18:39;;;;;;;;;;;;;;;;;;1886309;28;7038;-62
2022/12/25 00:19:36;;;;;;;;;;;;;;;;;;1885841;28;7042;-63
2022/12/25 00:20:34;;;;;;;;;;;;;;;;;;1882306;28;7083;-62
2022/12/25 00:21:32;;;;;;;;;;;;;;;;;;1884058;28;7107;-62
2022/12/25 00:22:29;;;;;;;;;;;;;;;;;;1886110;28;7010;-64
2022/12/25 00:23:27;;;;;;;;;;;;;;;;;;1888936;28;7042;-63
2022/12/25 00:24:24;;;;;;;;;;;;;;;;;;1883579;28;7010;-62
2022/12/25 00:25:22;;;;;;;;;;;;;;;;;;1882174;28;7092;-63
2022/12/25 00:26:19;;;;;;;;;;;;;;;;;;1887229;28;8334;-63
2022/12/25 00:27:16;;;;;;;;;;;;;;;;;;1886929;28;7006;-63
2022/12/25 00:28:14;;;;;;;;;;;;;;;;;;1887725;28;7026;-63
2022/12/25 00:29:12;;;;;;;;;;;;;;;;;;1889307;28;7704;-64
2022/12/25 00:30:10;;;;;;;;;;;;;;;;;;1884231;28;7369;-63
2022/12/25 00:31:09;;;;;;;;;;;;;;;;;;1884753;28;7043;-62
2022/12/25 00:32:07;;;;;;;;;;;;;;;;;;1888265;28;8046;-62
2022/12/25 00:33:04;;;;;;;;;;;;;;;;;;1889106;28;7088;-63
2022/12/25 00:34:03;;;;;;;;;;;;;;;;;;1885482;28;7042;-62
2022/12/25 00:35:01;;;;;;;;;;;;;;;;;;1887890;28;7022;-63
2022/12/25 00:35:59;;;;;;;;;;;;;;;;;;1884595;28;7014;-64
2022/12/25 00:36:56;;;;;;;;;;;;;;;;;;1889688;28;8103;-62
2022/12/25 00:37:53;;;;;;;;;;;;;;;;;;1887706;28;8013;-64
2022/12/25 00:38:51;;;;;;;;;;;;;;;;;;1889823;28;7030;-62
2022/12/25 00:39:48;;;;;;;;;;;;;;;;;;1884463;28;8691;-63
2022/12/25 00:40:46;;;;;;;;;;;;;;;;;;1886386;28;7046;-64
2022/12/25 00:42:59;;;;;;;;;;;;;;;;;;1886690;28;7082;-63
2022/12/25 00:43:56;;;;;;;;;;;;;;;;;;1881998;28;8119;-64
2022/12/25 00:44:54;;;;;;;;;;;;;;;;;;1881529;28;7010;-64
2022/12/25 00:45:58;;;;;;;;;;;;;;;;;;1881903;28;7550;-63
2022/12/25 00:46:56;;;;;;;;;;;;;;;;;;1882183;28;7050;-62
2022/12/25 00:47:53;;;;;;;;;;;;;;;;;;1885306;28;7009;-63
2022/12/25 00:48:51;;;;;;;;;;;;;;;;;;1887541;28;7089;-64
2022/12/25 00:49:48;;;;;;;;;;;;;;;;;;1887140;28;8023;-63
2022/12/25 00:50:45;;;;;;;;;;;;;;;;;;1888248;28;7005;-64
2022/12/25 00:51:43;;;;;;;;;;;;;;;;;;1887993;28;7151;-63
2022/12/25 00:52:40;;;;;;;;;;;;;;;;;;1888200;28;7831;-64
2022/12/25 00:53:37;;;;;;;;;;;;;;;;;;1884618;28;7204;-63
2022/12/25 00:54:35;;;;;;;;;;;;;;;;;;1888221;28;7124;-62
2022/12/25 00:55:33;;;;;;;;;;;;;;;;;;1883225;28;7005;-64
2022/12/25 00:56:30;;;;;;;;;;;;;;;;;;1880806;28;7046;-62
2022/12/25 00:57:27;;;;;;;;;;;;;;;;;;1886679;28;7101;-64
2022/12/25 00:58:27;;;;;;;;;;;;;;;;;;1881295;28;7058;-63
2022/12/25 00:59:24;;;;;;;;;;;;;;;;;;1878344;28;8051;-64
2022/12/25 01:00:21;;;;;;;;;;;;;;;;;;1885285;28;7097;-63
2022/12/25 01:01:19;;;;;;;;;;;;;;;;;;1887838;28;8060;-63
2022/12/25 01:02:22;;;;;;;;;;;;;;;;;;1887100;28;7026;-64
2022/12/25 01:03:20;;;;;;;;;;;;;;;;;;1884178;28;7142;-64
2022/12/25 01:04:17;;;;;;;;;;;;;;;;;;1885163;28;7134;-63
2022/12/25 01:05:14;;;;;;;;;;;;;;;;;;1889752;28;7078;-63
2022/12/25 01:06:12;;;;;;;;;;;;;;;;;;1889731;28;8035;-64
2022/12/25 01:07:10;;;;;;;;;;;;;;;;;;1889679;28;7009;-63
2022/12/25 01:08:07;;;;;;;;;;;;;;;;;;1887354;28;7014;-64
2022/12/25 01:10:35;;;;;;;;;;;;;;;;;;1887037;28;7388;-62
2022/12/25 01:11:32;;;;;;;;;;;;;;;;;;1883076;28;7142;-63
2022/12/25 01:12:30;;;;;;;;;;;;;;;;;;1887423;28;7092;-63
2022/12/25 01:13:29;;;;;;;;;;;;;;;;;;1889231;28;7010;-64
2022/12/25 01:14:26;;;;;;;;;;;;;;;;;;1885812;28;7092;-64
2022/12/25 01:15:24;;;;;;;;;;;;;;;;;;1889930;28;7372;-64
2022/12/25 01:16:21;;;;;;;;;;;;;;;;;;1891582;28;7092;-63
2022/12/25 01:17:19;;;;;;;;;;;;;;;;;;1889096;28;7160;-64
2022/12/25 01:18:17;;;;;;;;;;;;;;;;;;1888099;28;7100;-63
2022/12/25 01:19:14;;;;;;;;;;;;;;;;;;1886996;28;7046;-63
2022/12/25 01:20:13;;;;;;;;;;;;;;;;;;1886134;28;7092;-64
2022/12/25 01:21:14;;;;;;;;;;;;;;;;;;1887361;28;7072;-62
2022/12/25 01:22:12;;;;;;;;;;;;;;;;;;1891368;28;7038;-62
2022/12/25 01:23:09;;;;;;;;;;;;;;;;;;1891251;28;8031;-63
2022/12/25 01:24:07;;;;;;;;;;;;;;;;;;1890141;28;8099;-62
2022/12/25 01:25:05;;;;;;;;;;;;;;;;;;1885638;28;7006;-63
2022/12/25 01:26:03;;;;;;;;;;;;;;;;;;1885300;28;7022;-64
2022/12/25 01:27:00;;;;;;;;;;;;;;;;;;1891457;28;7005;-63
2022/12/25 01:28:00;;;;;;;;;;;;;;;;;;1888195;28;8039;-63
2022/12/25 01:28:58;;;;;;;;;;;;;;;;;;1885702;28;7010;-62
2022/12/25 01:29:55;;;;;;;;;;;;;;;;;;1886786;28;7042;-63
2022/12/25 01:30:52;;;;;;;;;;;;;;;;;;1889543;28;7005;-62
2022/12/25 01:31:50;;;;;;;;;;;;;;;;;;1888269;28;7998;-64
2022/12/25 01:32:47;;;;;;;;;;;;;;;;;;1891746;28;7110;-64
2022/12/25 01:33:45;;;;;;;;;;;;;;;;;;1890864;28;7241;-62
2022/12/25 01:34:42;;;;;;;;;;;;;;;;;;1889755;28;7025;-63
2022/12/25 01:35:40;;;;;;;;;;;;;;;;;;1889167;28;7042;-64
2022/12/25 01:36:38;;;;;;;;;;;;;;;;;;1888742;28;7017;-64
2022/12/25 01:37:35;;;;;;;;;;;;;;;;;;1889898;28;7312;-62
2022/12/25 01:38:32;;;;;;;;;;;;;;;;;;1884710;28;7133;-64
2022/12/25 01:39:30;;;;;;;;;;;;;;;;;;1885738;28;7005;-63
2022/12/25 01:40:27;;;;;;;;;;;;;;;;;;1887507;28;8023;-64
2022/12/25 01:41:24;;;;;;;;;;;;;;;;;;1884555;28;7025;-62
2022/12/25 01:42:25;;;;;;;;;;;;;;;;;;1884687;28;7073;-63
2022/12/25 01:43:30;;;;;;;;;;;;;;;;;;1884219;28;7022;-64
2022/12/25 01:44:36;;;;;;;;;;;;;;;;;;1884202;28;8024;-62
2022/12/25 01:45:43;;;;;;;;;;;;;;;;;;1884166;28;8031;-63
2022/12/25 01:46:41;;;;;;;;;;;;;;;;;;1884137;28;7009;-64
2022/12/25 01:47:39;;;;;;;;;;;;;;;;;;1884043;28;7006;-64
2022/12/25 01:48:38;;;;;;;;;;;;;;;;;;1884334;28;7128;-63
2022/12/25 01:49:38;;;;;;;;;;;;;;;;;;1883813;28;7046;-63
2022/12/25 01:50:38;;;;;;;;;;;;;;;;;;1884711;28;7200;-62
2022/12/25 01:51:45;;;;;;;;;;;;;;;;;;1884502;28;7649;-64
2022/12/25 01:52:43;;;;;;;;;;;;;;;;;;1883962;28;7010;-63
2022/12/25 01:53:40;;;;;;;;;;;;;;;;;;1884551;28;7372;-63
2022/12/25 01:54:40;;;;;;;;;;;;;;;;;;1883429;28;7268;-64
2022/12/25 01:55:40;;;;;;;;;;;;;;;;;;1884432;28;7033;-63
2022/12/25 01:56:41;;;;;;;;;;;;;;;;;;1884400;28;7092;-63
2022/12/25 01:57:40;;;;;;;;;;;;;;;;;;1883317;28;7385;-63
2022/12/25 01:58:38;;;;;;;;;;;;;;;;;;1883832;28;7051;-63
2022/12/25 01:59:35;;;;;;;;;;;;;;;;;;1884121;28;8067;-63
2022/12/25 02:00:33;;;;;;;;;;;;;;;;;;1884229;28;7010;-63
2022/12/25 02:01:30;;;;;;;;;;;;;;;;;;1884706;28;7121;-62
2022/12/25 02:02:28;;;;;;;;;;;;;;;;;;1884443;28;7034;-62
2022/12/25 02:03:26;;;;;;;;;;;;;;;;;;1884422;28;7096;-64
2022/12/25 02:04:37;;;;;;;;;;;;;;;;;;1883889;28;7010;-62
2022/12/25 02:05:35;;;;;;;;;;;;;;;;;;1884010;28;8011;-62
2022/12/25 02:06:33;;;;;;;;;;;;;;;;;;1883973;28;7120;-62
2022/12/25 02:07:32;;;;;;;;;;;;;;;;;;1884399;28;7096;-63
2022/12/25 02:08:30;;;;;;;;;;;;;;;;;;1884148;28;7375;-62
2022/12/25 02:09:27;;;;;;;;;;;;;;;;;;1884103;28;7009;-62
2022/12/25 02:10:25;;;;;;;;;;;;;;;;;;1884307;28;7005;-62
2022/12/25 02:12:40;;;;;;;;;;;;;;;;;;1883819;28;7030;-63
2022/12/25 02:13:37;;;;;;;;;;;;;;;;;;1882777;28;7208;-62
2022/12/25 02:14:36;;;;;;;;;;;;;;;;;;1884352;28;7145;-63
2022/12/25 02:15:51;;;;;;;;;;;;;;;;;;1883901;28;7006;-64
2022/12/25 02:16:55;;;;;;;;;;;;;;;;;;1881975;28;8058;-64
2022/12/25 02:18:03;;;;;;;;;;;;;;;;;;1882905;28;7005;-63
2022/12/25 02:19:10;;;;;;;;;;;;;;;;;;1883066;28;8030;-64
2022/12/25 02:20:36;;;;;;;;;;;;;;;;;;1882832;28;7037;-62
2022/12/25 02:21:46;;;;;;;;;;;;;;;;;;1875015;28;7515;-63
2022/12/25 02:22:56;;;;;;;;;;;;;;;;;;1873991;28;7096;-63
2022/12/25 02:24:09;;;;;;;;;;;;;;;;;;1883002;28;7013;-64
2022/12/25 02:25:07;;;;;;;;;;;;;;;;;;1882827;28;7014;-64
2022/12/25 02:26:23;;;;;;;;;;;;;;;;;;1882986;28;7106;-64
2022/12/25 02:27:39;;;;;;;;;;;;;;;;;;1882754;28;8027;-64
2022/12/25 02:28:39;;;;;;;;;;;;;;;;;;1883016;28;7108;-63
2022/12/25 02:29:44;;;;;;;;;;;;;;;;;;1882378;28;8623;-63
2022/12/25 02:30:46;;;;;;;;;;;;;;;;;;1882670;28;7014;-64
2022/12/25 02:31:58;;;;;;;;;;;;;;;;;;1882890;28;7021;-64
2022/12/25 02:34:32;;;;;;;;;;;;;;;;;;1882890;28;7042;-63
2022/12/25 02:35:30;;;;;;;;;;;;;;;;;;1882641;28;7042;-63
2022/12/25 02:36:36;;;;;;;;;;;;;;;;;;1881357;28;7391;-63
2022/12/25 02:37:34;;;;;;;;;;;;;;;;;;1882802;28;7053;-63
2022/12/25 02:39:56;;;;;;;;;;;;;;;;;;1882456;28;7042;-64
2022/12/25 02:40:13;;;;;;;;;;;;;;;;;;1882169;28;7110;-63
2022/12/25 02:41:14;;;;;;;;;;;;;;;;;;1882585;28;7123;-63
2022/12/25 02:42:17;;;;;;;;;;;;;;;;;;1881983;28;8025;-62
2022/12/25 03:07:16;;;;;;;;;;;;;;;;;;1889691;28;7002;-63
2022/12/25 03:08:18;;;;;;;;;;;;;;;;;;1889232;28;7005;-62
2022/12/25 03:12:01;;;;;;;;;;;;;;;;;;1887750;28;7006;-63
2022/12/25 03:13:05;;;;;;;;;;;;;;;;;;1889803;28;7045;-64
2022/12/25 03:16:52;;;;;;;;;;;;;;;;;;1887479;28;8017;-62
2022/12/25 03:17:50;;;;;;;;;;;;;;;;;;1885867;28;7101;-63
2022/12/25 03:18:48;;;;;;;;;;;;;;;;;;1884295;28;7276;-63
2022/12/25 03:27:38;;;;;;;;;;;;;;;;;;1882740;28;7136;-63
2022/12/25 03:28:35;;;;;;;;;;;;;;;;;;1884905;28;7010;-64
2022/12/25 03:31:11;;;;;;;;;;;;;;;;;;1873815;28;7070;-63
2022/12/25 03:32:09;;;;;;;;;;;;;;;;;;1874373;28;7018;-63
2022/12/25 03:33:21;;;;;;;;;;;;;;;;;;1875550;28;7003;-63
2022/12/25 03:36:04;;;;;;;;;;;;;;;;;;1880092;28;8097;-64
2022/12/25 03:48:07;;;;;;;;;;;;;;;;;;1875241;28;7042;-62
2022/12/25 04:36:26;;;;;;;;;;;;;;;;;;1873618;28;8031;-65
2022/12/25 04:37:24;;;;;;;;;;;;;;;;;;1874835;28;7075;-62
2022/12/25 04:38:21;;;;;;;;;;;;;;;;;;1874369;28;7117;-65
2022/12/25 04:39:18;;;;;;;;;;;;;;;;;;1873487;28;7142;-64
2022/12/25 04:40:16;;;;;;;;;;;;;;;;;;1872969;28;7104;-64
2022/12/25 04:41:13;;;;;;;;;;;;;;;;;;1874470;28;7324;-63
2022/12/25 04:42:11;;;;;;;;;;;;;;;;;;1874923;28;7010;-64
2022/12/25 04:43:08;;;;;;;;;;;;;;;;;;1878138;28;7041;-63
2022/12/25 04:44:05;;;;;;;;;;;;;;;;;;1882602;28;7010;-63
2022/12/25 04:45:03;;;;;;;;;;;;;;;;;;1881819;28;7010;-63
2022/12/25 04:46:01;;;;;;;;;;;;;;;;;;1882095;28;7118;-63
2022/12/25 04:46:59;;;;;;;;;;;;;;;;;;1881869;28;7009;-63
2022/12/25 04:48:02;;;;;;;;;;;;;;;;;;1882143;28;7046;-63
2022/12/25 04:48:59;;;;;;;;;;;;;;;;;;1882371;28;7096;-62
2022/12/25 04:49:56;;;;;;;;;;;;;;;;;;1881289;28;7343;-64
2022/12/25 04:50:55;;;;;;;;;;;;;;;;;;1881240;28;7009;-63
2022/12/25 04:51:52;;;;;;;;;;;;;;;;;;1882025;28;7196;-63
2022/12/25 04:52:49;;;;;;;;;;;;;;;;;;1882642;28;7014;-64
2022/12/25 04:53:47;;;;;;;;;;;;;;;;;;1881078;28;7320;-64
2022/12/25 04:54:45;;;;;;;;;;;;;;;;;;1881641;28;7054;-62
2022/12/25 04:55:43;;;;;;;;;;;;;;;;;;1881860;28;7103;-64
2022/12/25 04:56:40;;;;;;;;;;;;;;;;;;1882145;28;7097;-63
2022/12/25 04:57:42;;;;;;;;;;;;;;;;;;1881771;28;7006;-63
2022/12/25 04:58:40;;;;;;;;;;;;;;;;;;1881189;28;7006;-64
2022/12/25 04:59:37;;;;;;;;;;;;;;;;;;1880807;28;7117;-63
2022/12/25 05:00:35;;;;;;;;;;;;;;;;;;1882026;28;7027;-64
2022/12/25 05:01:32;;;;;;;;;;;;;;;;;;1881919;28;7088;-64
2022/12/25 05:02:30;;;;;;;;;;;;;;;;;;1882045;28;8915;-64
2022/12/25 05:03:29;;;;;;;;;;;;;;;;;;1882144;28;7117;-62
2022/12/25 05:04:26;;;;;;;;;;;;;;;;;;1882063;28;7006;-62
2022/12/25 05:05:24;;;;;;;;;;;;;;;;;;1881006;28;8370;-63
2022/12/25 05:06:21;;;;;;;;;;;;;;;;;;1882207;28;7014;-63
2022/12/25 05:07:18;;;;;;;;;;;;;;;;;;1882128;28;8123;-62
2022/12/25 05:08:16;;;;;;;;;;;;;;;;;;1881668;28;7134;-63
2022/12/25 05:09:13;;;;;;;;;;;;;;;;;;1882192;28;7105;-63
2022/12/25 05:10:10;;;;;;;;;;;;;;;;;;1882179;28;7009;-63
2022/12/25 05:11:09;;;;;;;;;;;;;;;;;;1881932;28;7256;-64
2022/12/25 05:12:07;;;;;;;;;;;;;;;;;;1881945;28;7005;-63
2022/12/25 05:13:05;;;;;;;;;;;;;;;;;;1882226;28;7025;-64
2022/12/25 05:14:02;;;;;;;;;;;;;;;;;;1881439;28;8039;-62
2022/12/25 05:14:59;;;;;;;;;;;;;;;;;;1881443;28;7120;-63
2022/12/25 05:15:57;;;;;;;;;;;;;;;;;;1881931;28;7152;-63
2022/12/25 05:16:54;;;;;;;;;;;;;;;;;;1882500;28;8043;-63
2022/12/25 05:17:51;;;;;;;;;;;;;;;;;;1881470;28;8040;-64
2022/12/25 05:18:50;;;;;;;;;;;;;;;;;;1882465;28;8559;-62
2022/12/25 05:19:47;;;;;;;;;;;;;;;;;;1882037;28;8062;-62
2022/12/25 05:20:53;;;;;;;;;;;;;;;;;;1881679;28;7129;-64
2022/12/25 05:21:51;;;;;;;;;;;;;;;;;;1881644;28;7313;-63
2022/12/25 05:22:48;;;;;;;;;;;;;;;;;;1881962;28;7009;-64
2022/12/25 05:23:52;;;;;;;;;;;;;;;;;;1881860;28;9063;-63
2022/12/25 05:24:50;;;;;;;;;;;;;;;;;;1882290;28;7010;-62
2022/12/25 05:25:47;;;;;;;;;;;;;;;;;;1880965;28;7054;-63
2022/12/25 05:26:44;;;;;;;;;;;;;;;;;;1881523;28;7124;-63
2022/12/25 05:27:42;;;;;;;;;;;;;;;;;;1882340;28;8059;-64
2022/12/25 05:28:47;;;;;;;;;;;;;;;;;;1882396;28;8036;-64
2022/12/25 05:29:44;;;;;;;;;;;;;;;;;;1881703;28;7124;-62
2022/12/25 05:30:41;;;;;;;;;;;;;;;;;;1881777;28;7134;-64
2022/12/25 05:31:39;;;;;;;;;;;;;;;;;;1881868;28;7058;-63
2022/12/25 05:32:36;;;;;;;;;;;;;;;;;;1882202;28;7100;-63
2022/12/25 05:33:34;;;;;;;;;;;;;;;;;;1881755;28;7010;-62
2022/12/25 05:34:31;;;;;;;;;;;;;;;;;;1882361;28;7010;-64
2022/12/25 05:35:29;;;;;;;;;;;;;;;;;;1881925;28;7044;-64
2022/12/25 05:36:27;;;;;;;;;;;;;;;;;;1882081;28;8216;-64
2022/12/25 05:37:24;;;;;;;;;;;;;;;;;;1881958;28;7005;-64
2022/12/25 05:38:22;;;;;;;;;;;;;;;;;;1882054;28;7042;-63
2022/12/25 05:39:19;;;;;;;;;;;;;;;;;;1882286;28;7051;-63
2022/12/25 05:40:17;;;;;;;;;;;;;;;;;;1882473;28;7009;-63
2022/12/25 05:41:14;;;;;;;;;;;;;;;;;;1882002;28;7281;-63
2022/12/25 05:42:11;;;;;;;;;;;;;;;;;;1882000;28;7159;-64
2022/12/25 05:43:09;;;;;;;;;;;;;;;;;;1881717;28;7006;-64
2022/12/25 05:44:06;;;;;;;;;;;;;;;;;;1882473;28;7046;-63
2022/12/25 05:45:04;;;;;;;;;;;;;;;;;;1881819;28;7117;-64
2022/12/25 05:46:08;;;;;;;;;;;;;;;;;;1882738;28;7009;-63
2022/12/25 05:47:05;;;;;;;;;;;;;;;;;;1881035;28;7097;-63
2022/12/25 05:48:03;;;;;;;;;;;;;;;;;;1881581;28;7013;-63
2022/12/25 05:49:00;;;;;;;;;;;;;;;;;;1881722;28;7509;-63
2022/12/25 05:50:00;;;;;;;;;;;;;;;;;;1882232;28;7026;-64
2022/12/25 05:51:02;;;;;;;;;;;;;;;;;;1882256;28;7010;-63
2022/12/25 05:51:59;;;;;;;;;;;;;;;;;;1881659;28;7014;-63
2022/12/25 05:52:57;;;;;;;;;;;;;;;;;;1883914;28;7532;-63
2022/12/25 05:54:03;;;;;;;;;;;;;;;;;;1883304;28;7071;-64
2022/12/25 05:55:01;;;;;;;;;;;;;;;;;;1883288;28;7010;-64
2022/12/25 05:56:00;;;;;;;;;;;;;;;;;;1883892;28;8105;-62
2022/12/25 05:56:57;;;;;;;;;;;;;;;;;;1883672;28;7050;-63
2022/12/25 05:57:54;;;;;;;;;;;;;;;;;;1883209;28;8071;-64
2022/12/25 05:58:53;;;;;;;;;;;;;;;;;;1883047;28;8144;-63
2022/12/25 05:59:50;;;;;;;;;;;;;;;;;;1883199;28;7006;-64
2022/12/25 06:00:47;;;;;;;;;;;;;;;;;;1883444;28;7118;-63
2022/12/25 06:01:45;;;;;;;;;;;;;;;;;;1883208;28;8038;-63
2022/12/25 06:02:42;;;;;;;;;;;;;;;;;;1883972;28;7133;-64
2022/12/25 06:03:40;;;;;;;;;;;;;;;;;;1882989;28;7006;-64
2022/12/25 06:04:38;;;;;;;;;;;;;;;;;;1881832;28;8003;-64
2022/12/25 06:05:36;;;;;;;;;;;;;;;;;;1883501;28;7088;-63
2022/12/25 06:06:34;;;;;;;;;;;;;;;;;;1883202;28;8689;-63
2022/12/25 06:07:31;;;;;;;;;;;;;;;;;;1883649;28;7006;-62
2022/12/25 06:08:28;;;;;;;;;;;;;;;;;;1883559;28;7285;-64
2022/12/25 06:09:26;;;;;;;;;;;;;;;;;;1883724;28;7113;-64
2022/12/25 06:10:23;;;;;;;;;;;;;;;;;;1882962;28;7025;-64
2022/12/25 06:11:21;;;;;;;;;;;;;;;;;;1883511;28;7005;-64
2022/12/25 06:12:18;;;;;;;;;;;;;;;;;;1883039;28;7038;-64
2022/12/25 06:13:16;;;;;;;;;;;;;;;;;;1883744;28;7102;-64
2022/12/25 06:14:14;;;;;;;;;;;;;;;;;;1883153;28;7158;-64
2022/12/25 06:15:11;;;;;;;;;;;;;;;;;;1883340;28;7089;-64
2022/12/25 06:16:10;;;;;;;;;;;;;;;;;;1883729;28;7101;-62
2022/12/25 06:17:08;;;;;;;;;;;;;;;;;;1880141;28;7152;-63
2022/12/25 06:18:05;;;;;;;;;;;;;;;;;;1879614;28;9388;-62
2022/12/25 06:19:03;;;;;;;;;;;;;;;;;;1883106;28;7152;-64
2022/12/25 06:20:00;;;;;;;;;;;;;;;;;;1883408;28;8105;-63
2022/12/25 06:20:58;;;;;;;;;;;;;;;;;;1883325;28;8204;-64
2022/12/25 06:21:55;;;;;;;;;;;;;;;;;;1883285;28;7957;-63
2022/12/25 06:22:53;;;;;;;;;;;;;;;;;;1883027;28;7010;-62
2022/12/25 06:23:50;;;;;;;;;;;;;;;;;;1884020;28;7201;-64
2022/12/25 06:24:48;;;;;;;;;;;;;;;;;;1883165;28;7025;-64
2022/12/25 06:25:45;;;;;;;;;;;;;;;;;;1883151;28;7014;-64
2022/12/25 06:26:43;;;;;;;;;;;;;;;;;;1882690;28;7006;-64
2022/12/25 06:27:40;;;;;;;;;;;;;;;;;;1882252;28;7025;-63
2022/12/25 06:28:37;;;;;;;;;;;;;;;;;;1883753;28;7117;-64
2022/12/25 06:29:35;;;;;;;;;;;;;;;;;;1883388;28;7051;-64
2022/12/25 06:30:33;;;;;;;;;;;;;;;;;;1883499;28;7400;-64
2022/12/25 06:31:30;;;;;;;;;;;;;;;;;;1883192;28;7069;-63
2022/12/25 06:32:28;;;;;;;;;;;;;;;;;;1883477;28;8102;-63
2022/12/25 06:33:25;;;;;;;;;;;;;;;;;;1883169;28;7149;-64
2022/12/25 06:34:22;;;;;;;;;;;;;;;;;;1883645;28;7042;-64
2022/12/25 06:35:20;;;;;;;;;;;;;;;;;;1882764;28;7006;-62
2022/12/25 06:36:19;;;;;;;;;;;;;;;;;;1883291;28;7285;-63
2022/12/25 06:37:17;;;;;;;;;;;;;;;;;;1883783;28;7117;-64
2022/12/25 06:38:14;;;;;;;;;;;;;;;;;;1883030;28;8001;-64
2022/12/25 06:39:11;;;;;;;;;;;;;;;;;;1882722;28;8059;-64
2022/12/25 06:40:09;;;;;;;;;;;;;;;;;;1883275;28;9712;-64
2022/12/25 06:41:09;;;;;;;;;;;;;;;;;;1882873;28;7133;-63
2022/12/25 06:42:06;;;;;;;;;;;;;;;;;;1882760;28;7135;-63
2022/12/25 06:43:03;;;;;;;;;;;;;;;;;;1884108;28;8026;-63
2022/12/25 06:44:01;;;;;;;;;;;;;;;;;;1890044;28;7034;-63
2022/12/25 06:44:58;;;;;;;;;;;;;;;;;;1890224;28;8083;-62
2022/12/25 06:45:55;;;;;;;;;;;;;;;;;;1880601;28;7026;-64
2022/12/25 06:46:53;;;;;;;;;;;;;;;;;;1888255;28;7096;-63
2022/12/25 06:47:50;;;;;;;;;;;;;;;;;;1890148;28;7017;-64
2022/12/25 06:48:48;;;;;;;;;;;;;;;;;;1887934;28;7042;-64
2022/12/25 06:49:46;;;;;;;;;;;;;;;;;;1890086;28;7952;-63
2022/12/25 06:50:43;;;;;;;;;;;;;;;;;;1881657;28;8014;-62
2022/12/25 06:51:40;;;;;;;;;;;;;;;;;;1882763;28;7120;-62
2022/12/25 06:52:38;;;;;;;;;;;;;;;;;;1889353;28;7065;-63
2022/12/25 06:53:36;;;;;;;;;;;;;;;;;;1887315;28;7096;-64
2022/12/25 06:54:36;;;;;;;;;;;;;;;;;;1890105;28;7109;-62
2022/12/25 06:55:34;;;;;;;;;;;;;;;;;;1890368;28;7010;-64
2022/12/25 06:56:32;;;;;;;;;;;;;;;;;;1889269;28;7085;-63
2022/12/25 06:57:29;;;;;;;;;;;;;;;;;;1883650;28;7038;-62
2022/12/25 06:58:27;;;;;;;;;;;;;;;;;;1883693;28;7006;-63
2022/12/25 06:59:24;;;;;;;;;;;;;;;;;;1882432;28;7042;-63
2022/12/25 07:00:22;;;;;;;;;;;;;;;;;;1890302;28;7093;-64
2022/12/25 07:01:24;;;;;;;;;;;;;;;;;;1890341;28;7042;-64
2022/12/25 07:02:23;;;;;;;;;;;;;;;;;;1881993;28;7039;-63
2022/12/25 07:03:21;;;;;;;;;;;;;;;;;;1886724;28;9072;-63
2022/12/25 07:04:23;;;;;;;;;;;;;;;;;;1882914;28;7010;-62
2022/12/25 07:05:21;;;;;;;;;;;;;;;;;;1885866;28;8035;-64
2022/12/25 07:06:18;;;;;;;;;;;;;;;;;;1889040;28;7200;-63
2022/12/25 07:07:15;;;;;;;;;;;;;;;;;;1890156;28;8030;-64
2022/12/25 07:08:13;;;;;;;;;;;;;;;;;;1890474;28;7010;-63
2022/12/25 07:09:10;;;;;;;;;;;;;;;;;;1890174;28;7006;-64
2022/12/25 07:10:08;;;;;;;;;;;;;;;;;;1884954;28;7993;-63
2022/12/25 07:11:06;;;;;;;;;;;;;;;;;;1882924;28;7092;-63
2022/12/25 07:12:14;;;;;;;;;;;;;;;;;;1883945;28;7006;-64
2022/12/25 07:13:12;;;;;;;;;;;;;;;;;;1884360;28;7005;-63
2022/12/25 07:14:20;;;;;;;;;;;;;;;;;;1888929;28;7042;-62
2022/12/25 07:15:21;;;;;;;;;;;;;;;;;;1883396;28;7038;-63
2022/12/25 07:16:19;;;;;;;;;;;;;;;;;;1885310;28;7074;-63
2022/12/25 07:17:18;;;;;;;;;;;;;;;;;;1886994;28;7117;-63
2022/12/25 07:18:15;;;;;;;;;;;;;;;;;;1883049;28;8047;-63
2022/12/25 07:19:13;;;;;;;;;;;;;;;;;;1888998;28;7073;-63
2022/12/25 07:20:10;;;;;;;;;;;;;;;;;;1885341;28;8106;-63
2022/12/25 07:21:09;;;;;;;;;;;;;;;;;;1889980;28;7117;-62
2022/12/25 07:22:06;;;;;;;;;;;;;;;;;;1888633;28;7009;-62
2022/12/25 07:23:03;;;;;;;;;;;;;;;;;;1887902;28;7076;-63
2022/12/25 07:24:01;;;;;;;;;;;;;;;;;;1889540;28;8114;-62
2022/12/25 07:25:00;;;;;;;;;;;;;;;;;;1888558;28;7014;-63
2022/12/25 07:26:01;;;;;;;;;;;;;;;;;;1883586;28;9056;-63
2022/12/25 07:26:58;;;;;;;;;;;;;;;;;;1890128;28;7078;-62
2022/12/25 07:27:56;;;;;;;;;;;;;;;;;;1890119;28;8687;-63
2022/12/25 07:28:54;;;;;;;;;;;;;;;;;;1890432;28;7013;-63
2022/12/25 07:29:51;;;;;;;;;;;;;;;;;;1887272;28;7422;-63
2022/12/25 07:30:49;;;;;;;;;;;;;;;;;;1890028;28;7046;-64
2022/12/25 07:31:46;;;;;;;;;;;;;;;;;;1889786;28;8035;-62
2022/12/25 07:32:44;;;;;;;;;;;;;;;;;;1890027;28;7113;-63
2022/12/25 07:33:46;;;;;;;;;;;;;;;;;;1890113;28;7029;-63
2022/12/25 07:34:43;;;;;;;;;;;;;;;;;;1890465;28;7014;-63
2022/12/25 07:35:41;;;;;;;;;;;;;;;;;;1889979;28;7006;-62
2022/12/25 07:36:38;;;;;;;;;;;;;;;;;;1890026;28;7038;-62
2022/12/25 07:37:36;;;;;;;;;;;;;;;;;;1890344;28;7006;-63
2022/12/25 07:38:33;;;;;;;;;;;;;;;;;;1887893;28;7038;-63
2022/12/25 07:39:31;;;;;;;;;;;;;;;;;;1885738;28;7089;-63
2022/12/25 07:40:28;;;;;;;;;;;;;;;;;;1882722;28;7333;-63
2022/12/25 07:41:25;;;;;;;;;;;;;;;;;;1889937;28;7093;-63
2022/12/25 07:42:23;;;;;;;;;;;;;;;;;;1888852;28;7276;-63
2022/12/25 07:43:21;;;;;;;;;;;;;;;;;;1883151;28;7139;-63
2022/12/25 07:44:19;;;;;;;;;;;;;;;;;;1883383;28;7010;-64
2022/12/25 07:45:16;;;;;;;;;;;;;;;;;;1882788;28;7093;-62
2022/12/25 07:46:14;;;;;;;;;;;;;;;;;;1882070;28;7042;-63
2022/12/25 07:47:13;;;;;;;;;;;;;;;;;;1883017;28;7068;-64
2022/12/25 07:48:10;;;;;;;;;;;;;;;;;;1882463;28;8092;-63
2022/12/25 07:49:13;;;;;;;;;;;;;;;;;;1881907;28;7092;-63
2022/12/25 07:50:10;;;;;;;;;;;;;;;;;;1882786;28;7006;-63
2022/12/25 07:51:10;;;;;;;;;;;;;;;;;;1882794;28;7340;-63
2022/12/25 07:52:07;;;;;;;;;;;;;;;;;;1876947;28;7224;-63
2022/12/25 07:53:04;;;;;;;;;;;;;;;;;;1880087;28;8048;-63
2022/12/25 07:54:09;;;;;;;;;;;;;;;;;;1882925;28;7306;-63
2022/12/25 07:55:07;;;;;;;;;;;;;;;;;;1882730;28;8159;-63
2022/12/25 07:56:04;;;;;;;;;;;;;;;;;;1882821;28;7089;-64
2022/12/25 07:57:02;;;;;;;;;;;;;;;;;;1882624;28;9054;-63
2022/12/25 07:57:59;;;;;;;;;;;;;;;;;;1882808;28;7246;-63
2022/12/25 07:58:56;;;;;;;;;;;;;;;;;;1883022;28;7001;-63
2022/12/25 07:59:54;;;;;;;;;;;;;;;;;;1882535;28;7129;-63
2022/12/25 08:00:51;;;;;;;;;;;;;;;;;;1882859;28;7127;-63
2022/12/25 08:01:49;;;;;;;;;;;;;;;;;;1883527;28;7054;-62
2022/12/25 08:02:50;;;;;;;;;;;;;;;;;;1881278;28;7507;-63
2022/12/25 08:03:49;;;;;;;;;;;;;;;;;;1882954;28;7010;-63
2022/12/25 08:04:46;;;;;;;;;;;;;;;;;;1883040;28;7168;-62
2022/12/25 08:05:44;;;;;;;;;;;;;;;;;;1882916;28;8016;-62
2022/12/25 08:06:41;;;;;;;;;;;;;;;;;;1882479;28;7047;-63
2022/12/25 08:07:39;;;;;;;;;;;;;;;;;;1883083;28;7006;-62
2022/12/25 08:08:37;;;;;;;;;;;;;;;;;;1882732;28;7013;-62
2022/12/25 08:09:34;;;;;;;;;;;;;;;;;;1882447;28;7114;-63
2022/12/25 08:10:32;;;;;;;;;;;;;;;;;;1882855;28;8024;-62
2022/12/25 08:11:29;;;;;;;;;;;;;;;;;;1882588;28;7010;-63
2022/12/25 08:12:27;;;;;;;;;;;;;;;;;;1882476;28;7006;-63
2022/12/25 08:13:24;;;;;;;;;;;;;;;;;;1882982;28;7472;-62
2022/12/25 08:14:22;;;;;;;;;;;;;;;;;;1883208;28;7014;-63
2022/12/25 08:15:19;;;;;;;;;;;;;;;;;;1882313;28;7118;-63
2022/12/25 08:16:16;;;;;;;;;;;;;;;;;;1882560;28;7117;-63
2022/12/25 08:17:14;;;;;;;;;;;;;;;;;;1882817;28;7014;-63
2022/12/25 08:18:11;;;;;;;;;;;;;;;;;;1882848;28;7092;-64
2022/12/25 08:19:09;;;;;;;;;;;;;;;;;;1882349;28;7145;-63
2022/12/25 08:20:07;;;;;;;;;;;;;;;;;;1882682;28;7113;-64
2022/12/25 08:21:09;;;;;;;;;;;;;;;;;;1882826;28;7124;-63
2022/12/25 08:22:07;;;;;;;;;;;;;;;;;;1882484;28;7085;-63
2022/12/25 08:23:04;;;;;;;;;;;;;;;;;;1882523;28;7005;-63
2022/12/25 08:24:03;;;;;;;;;;;;;;;;;;1882048;28;7127;-63
2022/12/25 08:25:00;;;;;;;;;;;;;;;;;;1882259;28;7029;-63
2022/12/25 08:26:01;;;;;;;;;;;;;;;;;;1882518;28;7014;-64
2022/12/25 08:27:02;;;;;;;;;;;;;;;;;;1882518;28;7010;-63
2022/12/25 08:28:00;;;;;;;;;;;;;;;;;;1882544;28;7009;-63
2022/12/25 08:28:58;;;;;;;;;;;;;;;;;;1882939;28;7010;-62
2022/12/25 08:29:55;;;;;;;;;;;;;;;;;;1882339;28;7022;-64
2022/12/25 08:30:52;;;;;;;;;;;;;;;;;;1882213;28;8864;-63
2022/12/25 08:31:50;;;;;;;;;;;;;;;;;;1882406;28;8467;-63
2022/12/25 08:32:47;;;;;;;;;;;;;;;;;;1883001;28;7025;-63